Latest Weather Observations for Shark Bay Airport

IDW60801

Issued at 9:33 am WST Wednesday 29 June 2016 (issued every 30 minutes, with the page automatically refreshed every 10 minutes)

About weather observations | Map of weather stations | Latest weather observations for WA | Other Formats
Station Details ID: 006105 Name: SHARK BAY AIRPORT Lat: -25.89 Lon: 113.58 Height: 33.8 m
Data from the previous 72 hours. | See also: Recent months at Shark Bay Airport
Date/Time
WST
Temp
°C
App
Temp
°C
Dew
Point
°C
Rel
Hum
%
Delta-T
°C
Wind Press
QNH
hPa
Press
MSL
hPa
Rain since
9am
mm
Dir  Spd
km/h
Gust
km/h
Spd
kts
Gust
kts
29/09:30am 21.9 22.7 16.4 71 3.3 N 7 9 4 5 1018.8 1018.8 0.0
29/09:00am 19.6 20.4 16.3 81 2.0 NNE 7 9 4 5 1018.6 1018.6 0.0
29/08:30am 17.2 16.7 15.0 87 1.3 NNE 11 15 6 8 1018.4 1018.4 0.0
29/08:00am 15.5 15.5 14.2 92 0.7 NE 7 9 4 5 1018.1 1018.1 0.0
29/07:30am 12.9 11.7 11.5 91 0.7 NE 9 9 5 5 1017.9 1017.9 0.0
29/07:00am 13.7 12.0 12.3 91 0.8 NNE 13 13 7 7 1017.5 1017.5 0.0
29/06:30am 13.3 12.2 11.9 91 0.8 NE 9 11 5 6 1017.2 1017.2 0.0
29/06:00am 12.8 11.5 11.2 90 0.8 NE 9 11 5 6 1016.9 1016.9 0.0
29/05:30am 13.2 12.0 11.6 90 0.9 NNE 9 11 5 6 1016.9 1016.9 0.0
29/05:00am 12.9 11.6 11.1 89 0.9 NNE 9 11 5 6 1016.9 1016.9 0.0
29/04:30am 13.5 11.6 11.7 89 1.0 NNE 13 17 7 9 1017.0 1017.0 0.0
29/04:00am 15.2 14.6 13.6 90 0.9 NNW 9 11 5 6 1016.9 1016.9 0.0
29/03:30am 14.8 13.7 13.0 89 1.0 NNW 11 11 6 6 1017.0 1017.0 0.0
29/03:00am 14.9 13.5 13.3 90 0.9 NNW 13 13 7 7 1016.8 1016.8 0.0
29/02:30am 13.9 12.4 11.8 87 1.1 N 11 11 6 6 1016.9 1016.9 0.0
29/02:00am 12.1 10.4 8.4 78 1.8 N 7 9 4 5 1017.1 1017.1 0.0
29/01:30am 14.9 13.6 12.6 86 1.3 N 11 11 6 6 1017.2 1017.2 0.0
29/01:00am 14.8 13.1 12.3 85 1.4 N 13 13 7 7 1017.3 1017.3 0.0
29/12:30am 13.1 11.4 9.9 81 1.6 N 9 11 5 6 1017.4 1017.4 0.0
29/12:00am 13.6 11.8 9.3 75 2.2 NNW 9 11 5 6 1017.7 1017.7 0.0
 
Date/Time
WST
Temp
°C
App
Temp
°C
Dew
Point
°C
Rel
Hum
%
Delta-T
°C
Wind Press
QNH
hPa
Press
MSL
hPa
Rain since
9am
mm
Dir  Spd
km/h
Gust
km/h
Spd
kts
Gust
kts
28/11:30pm 15.2 13.2 11.4 78 2.0 N 13 13 7 7 1017.7 1017.7 0.0
28/11:00pm 15.3 13.4 11.7 79 1.9 N 13 13 7 7 1017.7 1017.7 0.0
28/10:30pm 15.0 13.4 11.6 80 1.8 N 11 11 6 6 1017.6 1017.6 0.0
28/10:00pm 15.1 13.2 11.9 81 1.7 N 13 13 7 7 1017.4 1017.4 0.0
28/09:30pm 15.1 13.2 11.9 81 1.7 NNW 13 13 7 7 1017.4 1017.4 0.0
28/09:00pm 15.3 13.9 12.2 82 1.7 NNW 11 13 6 7 1017.4 1017.4 0.0
28/08:30pm 15.5 14.2 12.4 82 1.7 NNW 11 13 6 7 1017.5 1017.5 0.0
28/08:00pm 15.7 14.3 12.3 80 1.9 NNW 11 11 6 6 1017.3 1017.3 0.0
28/07:30pm 16.0 14.8 11.6 75 2.4 NNW 9 11 5 6 1017.1 1017.1 0.0
28/07:00pm 16.7 15.4 11.4 71 2.9 N 9 11 5 6 1017.0 1017.0 0.0
28/06:30pm 17.8 16.3 11.8 68 3.3 NNW 11 13 6 7 1016.6 1016.6 0.0
28/06:00pm 18.8 17.2 11.6 63 4.0 N 11 11 6 6 1016.3 1016.3 0.0
28/05:30pm 20.6 18.3 11.8 57 4.9 NNW 15 20 8 11 1016.0 1016.0 0.0
28/05:00pm 21.8 19.0 11.5 52 5.7 NNW 17 22 9 12 1015.8 1015.8 0.0
28/04:30pm 23.2 20.3 10.9 46 6.8 NNW 17 22 9 12 1015.6 1015.6 0.0
28/04:00pm 23.6 20.8 9.9 42 7.5 NW 15 22 8 12 1015.3 1015.3 0.0
28/03:30pm 24.5 21.4 10.4 41 7.8 NW 17 24 9 13 1015.3 1015.3 0.0
28/03:00pm 23.6 21.3 10.3 43 7.3 NW 13 20 7 11 1015.3 1015.3 0.0
28/02:30pm 24.1 20.9 10.0 41 7.7 NW 17 24 9 13 1015.3 1015.3 0.0
28/02:00pm 24.4 20.9 11.0 43 7.5 WNW 20 28 11 15 1015.4 1015.4 0.0
28/01:30pm 24.6 22.0 10.8 42 7.7 WNW 15 22 8 12 1015.5 1015.5 0.0
28/01:00pm 24.4 22.4 11.4 44 7.3 NNW 13 28 7 15 1015.6 1015.6 0.0
28/12:30pm 24.2 21.9 10.5 42 7.6 NNW 13 20 7 11 1016.2 1016.2 0.0
28/12:00pm 24.5 22.3 10.8 42 7.6 NNW 13 20 7 11 1016.6 1016.6 0.0
28/11:30am 23.4 21.3 11.1 46 6.9 N 13 20 7 11 1017.0 1017.0 0.0
28/11:00am 22.7 20.5 10.8 47 6.6 NNE 13 20 7 11 1017.2 1017.2 0.0
28/10:30am 22.3 19.9 11.4 50 6.1 NNE 15 19 8 10 1017.4 1017.4 0.0
28/10:00am 21.5 19.0 10.9 51 5.8 NNE 15 20 8 11 1017.6 1017.6 0.0
28/09:30am 20.4 18.7 12.6 61 4.4 NE 13 17 7 9 1017.5 1017.5 0.0
28/09:00am 18.2 17.3 13.7 75 2.6 NNE 11 15 6 8 1017.4 1017.4 0.0
28/08:30am 13.7 12.7 12.3 91 0.8 NE 9 9 5 5 1017.2 1017.2 0.0
28/08:00am 10.4 8.0 8.8 90 0.8 NE 11 11 6 6 1016.9 1016.9 0.0
28/07:30am 9.7 7.2 8.1 90 0.8 NE 11 11 6 6 1016.8 1016.8 0.0
28/07:00am 8.8 6.0 7.1 89 0.8 NE 11 11 6 6 1016.4 1016.4 0.0
28/06:30am 9.5 6.9 7.8 89 0.8 NE 11 11 6 6 1016.1 1016.1 0.0
28/06:00am 9.8 7.7 8.1 89 0.8 NE 9 9 5 5 1015.9 1015.9 0.0
28/05:30am 9.0 6.6 6.8 86 1.0 NE 9 11 5 6 1015.6 1015.6 0.0
28/05:00am 9.0 6.1 6.6 85 1.1 NE 11 13 6 7 1015.5 1015.5 0.0
28/04:30am 9.4 6.6 7.0 85 1.1 NNE 11 13 6 7 1015.5 1015.5 0.0
28/04:00am 8.8 6.2 6.1 83 1.2 NE 9 11 5 6 1015.5 1015.5 0.0
28/03:30am 9.0 6.0 5.9 81 1.4 NE 11 11 6 6 1015.5 1015.5 0.0
28/03:00am 8.9 5.8 5.6 80 1.5 NE 11 13 6 7 1015.6 1015.6 0.0
28/02:30am 9.3 6.7 6.0 80 1.5 NE 9 11 5 6 1015.6 1015.6 0.0
28/02:00am 9.8 7.3 6.7 81 1.5 NE 9 11 5 6 1015.7 1015.7 0.0
28/01:30am 10.6 8.4 7.8 83 1.4 NE 9 9 5 5 1015.7 1015.7 0.0
28/01:00am 11.2 9.6 8.8 85 1.2 NE 7 9 4 5 1015.6 1015.6 0.0
28/12:30am 11.5 10.1 9.4 87 1.1 NE 7 9 4 5 1015.6 1015.6 0.0
28/12:00am 11.3 10.0 9.2 87 1.0 ENE 6 7 3 4 1015.8 1015.8 0.0
 
Date/Time
WST
Temp
°C
App
Temp
°C
Dew
Point
°C
Rel
Hum
%
Delta-T
°C
Wind Press
QNH
hPa
Press
MSL
hPa
Rain since
9am
mm
Dir  Spd
km/h
Gust
km/h
Spd
kts
Gust
kts
27/11:30pm 11.3 9.7 8.9 85 1.2 ENE 7 7 4 4 1016.2 1016.2 0.0
27/11:00pm 11.5 9.9 8.9 84 1.3 ENE 7 9 4 5 1016.3 1016.3 0.0
27/10:30pm 11.2 9.4 7.9 80 1.6 NE 7 9 4 5 1016.4 1016.4 0.0
27/10:00pm 11.4 9.2 7.9 79 1.7 NE 9 11 5 6 1016.4 1016.4 0.0
27/09:30pm 12.1 10.0 8.4 78 1.8 NE 9 11 5 6 1016.5 1016.5 0.0
27/09:00pm 12.0 10.0 7.1 72 2.4 ENE 7 7 4 4 1016.6 1016.6 0.0
27/08:30pm 12.6 10.6 7.1 69 2.7 NE 7 7 4 4 1016.5 1016.5 0.0
27/08:00pm 14.0 11.9 8.2 68 2.9 NNE 9 9 5 5 1016.6 1016.6 0.0
27/07:30pm 14.3 12.6 8.5 68 2.9 NE 7 9 4 5 1016.6 1016.6 0.0
27/07:00pm 14.7 12.6 8.4 66 3.2 NE 9 11 5 6 1016.3 1016.3 0.0
27/06:30pm 15.6 13.9 8.4 62 3.6 N 7 9 4 5 1015.9 1015.9 0.0
27/06:00pm 17.4 16.0 9.6 60 4.1 WNW 7 7 4 4 1016.1 1016.1 0.0
27/05:30pm 18.4 17.0 8.7 53 5.0 W 6 7 3 4 1015.9 1015.9 0.0
27/05:00pm 19.0 17.2 7.8 48 5.7 WSW 7 9 4 5 1015.8 1015.8 0.0
27/04:30pm 19.5 17.3 6.3 42 6.6 WSW 7 9 4 5 1015.8 1015.8 0.0
27/04:00pm 19.6 17.4 7.7 46 6.1 WSW 9 13 5 7 1015.7 1015.7 0.0
27/03:30pm 20.1 16.4 4.6 36 7.5 WSW 13 19 7 10 1015.6 1015.6 0.0
27/03:00pm 21.4 17.7 6.1 37 7.7 W 15 20 8 11 1015.5 1015.5 0.0
27/02:30pm 20.6 16.6 10.4 52 5.5 WSW 22 28 12 15 1015.4 1015.4 0.0
27/02:00pm 21.9 17.7 8.4 42 7.1 W 20 30 11 16 1015.5 1015.5 0.0
27/01:30pm 21.7 16.7 4.7 33 8.4 W 20 28 11 15 1015.7 1015.7 0.0
27/01:00pm 22.4 18.3 6.2 35 8.2 WNW 17 24 9 13 1016.2 1016.2 0.0
27/12:30pm 21.6 18.2 3.8 31 8.6 N 11 20 6 11 1016.8 1016.8 0.0
27/12:00pm 20.8 17.3 7.1 41 7.0 NNE 15 20 8 11 1017.3 1017.3 0.0
27/11:30am 20.6 17.0 8.3 45 6.4 NNE 17 24 9 13 1017.5 1017.5 0.0
27/11:00am 19.4 15.0 7.2 45 6.2 NNE 20 28 11 15 1017.9 1017.9 0.0
27/10:30am 19.2 14.2 6.3 43 6.4 NE 22 28 12 15 1018.3 1018.3 0.0
27/10:00am 18.7 15.5 9.8 56 4.7 ENE 17 22 9 12 1018.7 1018.7 0.0
27/09:30am 17.2 14.5 10.3 64 3.7 E 15 19 8 10 1018.9 1018.9 0.0
27/09:00am 15.2 12.6 10.6 74 2.4 E 15 17 8 9 1019.0 1019.0 0.0
27/08:30am 13.0 11.1 10.5 85 1.3 ENE 11 13 6 7 1019.0 1019.0 0.0
27/08:00am 10.2 7.4 8.6 90 0.8 E 13 15 7 8 1018.8 1018.8 0.0
27/07:30am 8.5 5.4 7.1 91 0.7 E 13 17 7 9 1018.6 1018.6 0.0
27/07:00am 7.6 3.9 6.1 90 0.7 ESE 15 17 8 9 1018.7 1018.7 0.0
27/06:30am 7.3 3.9 5.8 90 0.7 ESE 13 15 7 8 1018.5 1018.5 0.0
27/06:00am 7.1 3.6 5.4 89 0.8 ESE 13 17 7 9 1018.4 1018.4 0.0
27/05:30am 7.2 3.7 5.5 89 0.8 ESE 13 17 7 9 1018.1 1018.1 0.0
27/05:00am 7.6 4.6 5.9 89 0.8 ESE 11 13 6 7 1018.1 1018.1 0.0
27/04:30am 7.6 4.2 5.7 88 0.9 ESE 13 13 7 7 1018.1 1018.1 0.0
27/04:00am 8.3 5.4 6.6 89 0.8 ESE 11 13 6 7 1018.1 1018.1 0.0
27/03:30am 8.2 4.9 6.2 87 0.9 ESE 13 15 7 8 1018.4 1018.4 0.0
27/03:00am 9.3 7.0 7.4 88 0.9 ESE 9 13 5 7 1018.7 1018.7 0.0
27/02:30am 9.2 6.5 7.3 88 0.9 ESE 11 13 6 7 1018.8 1018.8 0.0
27/02:00am 9.1 6.3 7.1 87 0.9 ESE 11 13 6 7 1019.1 1019.1 0.0
27/01:30am 10.0 7.8 7.9 87 1.0 ESE 9 11 5 6 1019.2 1019.2 0.0
27/01:00am 10.8 8.9 8.9 88 0.9 ESE 9 11 5 6 1019.3 1019.3 0.0
27/12:30am 10.3 7.8 8.4 88 0.9 SE 11 13 6 7 1019.4 1019.4 0.0
27/12:00am 10.5 8.0 8.4 87 1.0 SE 11 13 6 7 1019.6 1019.6 0.0
 
Date/Time
WST
Temp
°C
App
Temp
°C
Dew
Point
°C
Rel
Hum
%
Delta-T
°C
Wind Press
QNH
hPa
Press
MSL
hPa
Rain since
9am
mm
Dir  Spd
km/h
Gust
km/h
Spd
kts
Gust
kts
26/11:30pm 10.6 8.1 8.4 86 1.1 SE 11 11 6 6 1020.0 1020.0 0.0
26/11:00pm 11.2 8.8 8.8 85 1.2 SSE 11 13 6 7 1020.1 1020.1 0.0
26/10:30pm 11.4 8.9 8.4 82 1.5 SSE 11 13 6 7 1020.2 1020.2 0.0
26/10:00pm 12.4 9.4 9.2 81 1.6 S 15 17 8 9 1020.3 1020.3 0.0
26/09:30pm 12.5 9.4 9.0 79 1.8 S 15 17 8 9 1020.5 1020.5 0.0
26/09:00pm 13.1 10.4 9.0 76 2.1 S 13 17 7 9 1020.6 1020.6 0.0
26/08:30pm 13.4 10.2 8.5 72 2.5 S 15 17 8 9 1020.5 1020.5 0.0
26/08:00pm 13.6 10.3 8.2 70 2.7 S 15 17 8 9 1020.4 1020.4 0.0
26/07:30pm 14.1 10.6 7.4 64 3.3 S 15 17 8 9 1020.2 1020.2 0.0
26/07:00pm 14.4 11.0 7.5 63 3.4 S 15 17 8 9 1020.0 1020.0 0.0
26/06:30pm 14.6 11.5 7.4 62 3.6 S 13 17 7 9 1020.0 1020.0 0.0
26/06:00pm 15.3 12.4 4.4 48 5.1 SSE 9 13 5 7 1020.1 1020.1 0.0
26/05:30pm 17.9 14.6 4.8 42 6.3 SSE 11 15 6 8 1020.1 1020.1 0.0
26/05:00pm 19.2 15.1 4.6 38 7.0 SE 15 20 8 11 1019.9 1019.9 0.0
26/04:30pm 20.0 15.9 4.1 35 7.6 SE 15 20 8 11 1020.0 1020.0 0.0
26/04:00pm 20.5 16.1 2.8 31 8.3 ESE 15 22 8 12 1020.2 1020.2 0.0
26/03:30pm 20.5 16.1 2.8 31 8.3 ESE 15 22 8 12 1020.4 1020.4 0.0
26/03:00pm 20.7 15.5 2.5 30 8.5 SE 19 26 10 14 1020.4 1020.4 0.0
26/02:30pm 20.5 16.2 7.2 42 6.8 ESE 19 26 10 14 1020.5 1020.5 0.0
26/02:00pm 20.1 15.6 7.1 43 6.6 ESE 20 28 11 15 1020.7 1020.7 0.0
26/01:30pm 20.3 16.3 8.3 46 6.3 ESE 19 26 10 14 1021.3 1021.3 0.0
26/01:00pm 19.4 15.2 8.4 49 5.7 ESE 20 28 11 15 1021.8 1021.8 0.0
26/12:30pm 19.2 15.1 8.8 51 5.4 ESE 20 28 11 15 1022.4 1022.4 0.0
26/12:00pm 19.2 15.1 8.8 51 5.4 ESE 20 30 11 16 1023.0 1022.9 0.0
26/11:30am 18.3 13.9 8.8 54 4.9 ESE 22 32 12 17 1023.6 1023.5 0.0
26/11:00am 18.0 13.6 9.1 56 4.6 ESE 22 30 12 16 1024.1 1024.0 0.0
26/10:30am 17.4 13.5 9.3 59 4.2 ESE 20 30 11 16 1024.6 1024.5 0.0
26/10:00am 17.4 13.8 9.8 61 4.0 ESE 19 24 10 13 1024.6 1024.5 0.0

Other Formats:

Comma delimited format used in spreadsheet applications
http://www.bom.gov.au/fwo/IDW60801/IDW60801.95402.axf

JavaScript Object Notation format (JSON) in row-major order
http://www.bom.gov.au/fwo/IDW60801/IDW60801.95402.json